sensor_id;sensor_type;location;lat;lon;timestamp;P1;durP1;ratioP1;P2;durP2;ratioP2
21424;SDS011;10873;51.132;16.848;2023-04-30T00:00:34;6.50;;;4.38;;
21424;SDS011;10873;51.132;16.848;2023-04-30T00:03:22;7.38;;;4.38;;
21424;SDS011;10873;51.132;16.848;2023-04-30T00:05:49;8.23;;;3.85;;
21424;SDS011;10873;51.132;16.848;2023-04-30T00:08:16;9.35;;;4.03;;
21424;SDS011;10873;51.132;16.848;2023-04-30T00:10:42;9.38;;;4.28;;
21424;SDS011;10873;51.132;16.848;2023-04-30T00:13:08;6.60;;;4.22;;
21424;SDS011;10873;51.132;16.848;2023-04-30T00:15:34;5.28;;;3.80;;
21424;SDS011;10873;51.132;16.848;2023-04-30T00:18:01;8.70;;;4.30;;
21424;SDS011;10873;51.132;16.848;2023-04-30T00:20:28;12.43;;;4.72;;
21424;SDS011;10873;51.132;16.848;2023-04-30T00:22:54;7.43;;;4.20;;
21424;SDS011;10873;51.132;16.848;2023-04-30T00:25:20;9.52;;;4.38;;
21424;SDS011;10873;51.132;16.848;2023-04-30T00:27:49;11.77;;;4.60;;
21424;SDS011;10873;51.132;16.848;2023-04-30T00:30:15;11.40;;;5.10;;
21424;SDS011;10873;51.132;16.848;2023-04-30T00:32:41;10.43;;;4.88;;
21424;SDS011;10873;51.132;16.848;2023-04-30T00:35:09;9.25;;;4.88;;
21424;SDS011;10873;51.132;16.848;2023-04-30T00:37:37;10.65;;;5.15;;
21424;SDS011;10873;51.132;16.848;2023-04-30T00:40:03;8.60;;;5.15;;
21424;SDS011;10873;51.132;16.848;2023-04-30T00:42:30;12.77;;;5.10;;
21424;SDS011;10873;51.132;16.848;2023-04-30T00:44:56;10.00;;;4.57;;
21424;SDS011;10873;51.132;16.848;2023-04-30T00:47:22;11.52;;;4.68;;
21424;SDS011;10873;51.132;16.848;2023-04-30T00:49:49;11.27;;;4.88;;
21424;SDS011;10873;51.132;16.848;2023-04-30T00:52:16;10.27;;;5.28;;
21424;SDS011;10873;51.132;16.848;2023-04-30T00:54:43;11.15;;;5.00;;
21424;SDS011;10873;51.132;16.848;2023-04-30T00:57:11;9.98;;;4.63;;
21424;SDS011;10873;51.132;16.848;2023-04-30T00:59:40;11.13;;;4.47;;
21424;SDS011;10873;51.132;16.848;2023-04-30T01:02:10;15.73;;;5.15;;
21424;SDS011;10873;51.132;16.848;2023-04-30T01:04:37;16.10;;;5.25;;
21424;SDS011;10873;51.132;16.848;2023-04-30T01:07:03;21.48;;;5.50;;
21424;SDS011;10873;51.132;16.848;2023-04-30T01:09:29;15.40;;;5.40;;
21424;SDS011;10873;51.132;16.848;2023-04-30T01:12:01;12.95;;;5.40;;
21424;SDS011;10873;51.132;16.848;2023-04-30T01:14:37;15.25;;;5.30;;
21424;SDS011;10873;51.132;16.848;2023-04-30T01:17:12;23.38;;;6.15;;
21424;SDS011;10873;51.132;16.848;2023-04-30T01:19:45;16.45;;;6.22;;
21424;SDS011;10873;51.132;16.848;2023-04-30T01:22:13;13.60;;;5.65;;
21424;SDS011;10873;51.132;16.848;2023-04-30T01:24:56;13.68;;;5.45;;
21424;SDS011;10873;51.132;16.848;2023-04-30T01:30:24;15.73;;;5.60;;
21424;SDS011;10873;51.132;16.848;2023-04-30T01:32:51;13.88;;;5.13;;
21424;SDS011;10873;51.132;16.848;2023-04-30T01:35:17;18.70;;;5.50;;
21424;SDS011;10873;51.132;16.848;2023-04-30T01:37:56;13.88;;;5.10;;
21424;SDS011;10873;51.132;16.848;2023-04-30T01:40:31;10.02;;;4.93;;
21424;SDS011;10873;51.132;16.848;2023-04-30T01:43:07;10.55;;;4.30;;
21424;SDS011;10873;51.132;16.848;2023-04-30T01:45:47;14.10;;;4.63;;
21424;SDS011;10873;51.132;16.848;2023-04-30T01:48:23;15.30;;;4.68;;
21424;SDS011;10873;51.132;16.848;2023-04-30T01:51:01;9.02;;;4.10;;
21424;SDS011;10873;51.132;16.848;2023-04-30T01:53:37;13.15;;;4.30;;
21424;SDS011;10873;51.132;16.848;2023-04-30T01:56:08;11.82;;;4.15;;
21424;SDS011;10873;51.132;16.848;2023-04-30T01:58:37;18.35;;;5.68;;
21424;SDS011;10873;51.132;16.848;2023-04-30T02:01:05;13.85;;;5.95;;
21424;SDS011;10873;51.132;16.848;2023-04-30T02:03:31;11.30;;;6.03;;
21424;SDS011;10873;51.132;16.848;2023-04-30T02:05:57;13.35;;;6.00;;
21424;SDS011;10873;51.132;16.848;2023-04-30T02:08:24;11.75;;;5.53;;
21424;SDS011;10873;51.132;16.848;2023-04-30T02:10:50;10.15;;;5.53;;
21424;SDS011;10873;51.132;16.848;2023-04-30T02:13:16;8.35;;;5.72;;
21424;SDS011;10873;51.132;16.848;2023-04-30T02:15:42;10.75;;;6.60;;
21424;SDS011;10873;51.132;16.848;2023-04-30T02:18:09;15.93;;;10.65;;
21424;SDS011;10873;51.132;16.848;2023-04-30T02:20:35;20.35;;;13.05;;
21424;SDS011;10873;51.132;16.848;2023-04-30T02:23:01;23.98;;;15.07;;
21424;SDS011;10873;51.132;16.848;2023-04-30T02:25:27;30.02;;;16.15;;
21424;SDS011;10873;51.132;16.848;2023-04-30T02:27:54;23.75;;;15.20;;
21424;SDS011;10873;51.132;16.848;2023-04-30T02:30:20;25.40;;;15.18;;
21424;SDS011;10873;51.132;16.848;2023-04-30T02:32:46;22.33;;;14.52;;
21424;SDS011;10873;51.132;16.848;2023-04-30T02:35:14;18.75;;;12.68;;
21424;SDS011;10873;51.132;16.848;2023-04-30T02:37:40;18.55;;;12.40;;
21424;SDS011;10873;51.132;16.848;2023-04-30T02:40:07;19.60;;;11.43;;
21424;SDS011;10873;51.132;16.848;2023-04-30T02:42:34;15.30;;;10.65;;
21424;SDS011;10873;51.132;16.848;2023-04-30T02:45:00;13.70;;;9.77;;
21424;SDS011;10873;51.132;16.848;2023-04-30T02:47:26;12.02;;;8.75;;
21424;SDS011;10873;51.132;16.848;2023-04-30T02:49:52;13.85;;;8.25;;
21424;SDS011;10873;51.132;16.848;2023-04-30T02:52:19;11.15;;;7.53;;
21424;SDS011;10873;51.132;16.848;2023-04-30T02:54:45;10.35;;;7.57;;
21424;SDS011;10873;51.132;16.848;2023-04-30T02:57:11;11.23;;;6.82;;
21424;SDS011;10873;51.132;16.848;2023-04-30T02:59:37;8.70;;;6.10;;
21424;SDS011;10873;51.132;16.848;2023-04-30T03:02:03;7.18;;;5.80;;
21424;SDS011;10873;51.132;16.848;2023-04-30T03:04:29;9.20;;;6.05;;
21424;SDS011;10873;51.132;16.848;2023-04-30T03:06:56;6.88;;;5.47;;
21424;SDS011;10873;51.132;16.848;2023-04-30T03:09:23;9.95;;;5.53;;
21424;SDS011;10873;51.132;16.848;2023-04-30T03:11:49;6.63;;;4.93;;
21424;SDS011;10873;51.132;16.848;2023-04-30T03:14:15;6.32;;;4.82;;
21424;SDS011;10873;51.132;16.848;2023-04-30T03:16:41;6.30;;;4.90;;
21424;SDS011;10873;51.132;16.848;2023-04-30T03:19:07;6.80;;;4.50;;
21424;SDS011;10873;51.132;16.848;2023-04-30T03:21:33;6.30;;;4.50;;
21424;SDS011;10873;51.132;16.848;2023-04-30T03:23:59;6.63;;;4.50;;
21424;SDS011;10873;51.132;16.848;2023-04-30T03:26:27;5.95;;;4.50;;
21424;SDS011;10873;51.132;16.848;2023-04-30T03:28:52;5.57;;;4.20;;
21424;SDS011;10873;51.132;16.848;2023-04-30T03:31:20;5.75;;;4.60;;
21424;SDS011;10873;51.132;16.848;2023-04-30T03:33:46;6.50;;;4.50;;
21424;SDS011;10873;51.132;16.848;2023-04-30T03:36:12;5.22;;;4.10;;
21424;SDS011;10873;51.132;16.848;2023-04-30T03:38:38;5.25;;;3.85;;
21424;SDS011;10873;51.132;16.848;2023-04-30T03:41:05;6.05;;;4.00;;
21424;SDS011;10873;51.132;16.848;2023-04-30T03:43:32;6.32;;;3.80;;
21424;SDS011;10873;51.132;16.848;2023-04-30T03:45:58;4.13;;;3.38;;
21424;SDS011;10873;51.132;16.848;2023-04-30T03:48:24;5.55;;;3.95;;
21424;SDS011;10873;51.132;16.848;2023-04-30T03:50:51;4.93;;;3.92;;
21424;SDS011;10873;51.132;16.848;2023-04-30T03:53:17;4.97;;;3.53;;
21424;SDS011;10873;51.132;16.848;2023-04-30T03:55:43;4.75;;;3.65;;
21424;SDS011;10873;51.132;16.848;2023-04-30T03:58:09;4.68;;;3.70;;
21424;SDS011;10873;51.132;16.848;2023-04-30T04:00:37;4.47;;;3.63;;
21424;SDS011;10873;51.132;16.848;2023-04-30T04:03:05;5.47;;;4.03;;
21424;SDS011;10873;51.132;16.848;2023-04-30T04:05:31;4.63;;;3.60;;
21424;SDS011;10873;51.132;16.848;2023-04-30T04:07:57;6.00;;;3.70;;
21424;SDS011;10873;51.132;16.848;2023-04-30T04:10:24;4.45;;;3.50;;
21424;SDS011;10873;51.132;16.848;2023-04-30T04:12:49;5.28;;;4.00;;
21424;SDS011;10873;51.132;16.848;2023-04-30T04:15:16;5.72;;;3.80;;
21424;SDS011;10873;51.132;16.848;2023-04-30T04:17:43;4.55;;;3.65;;
21424;SDS011;10873;51.132;16.848;2023-04-30T04:20:09;3.80;;;3.40;;
21424;SDS011;10873;51.132;16.848;2023-04-30T04:22:37;4.93;;;3.78;;
21424;SDS011;10873;51.132;16.848;2023-04-30T04:25:03;5.25;;;3.72;;
21424;SDS011;10873;51.132;16.848;2023-04-30T04:27:30;4.88;;;3.75;;
21424;SDS011;10873;51.132;16.848;2023-04-30T04:29:56;5.38;;;3.83;;
21424;SDS011;10873;51.132;16.848;2023-04-30T04:32:22;5.00;;;3.47;;
21424;SDS011;10873;51.132;16.848;2023-04-30T04:34:50;4.30;;;3.35;;
21424;SDS011;10873;51.132;16.848;2023-04-30T04:37:18;4.03;;;3.63;;
21424;SDS011;10873;51.132;16.848;2023-04-30T04:39:45;4.30;;;3.50;;
21424;SDS011;10873;51.132;16.848;2023-04-30T04:42:11;4.82;;;3.50;;
21424;SDS011;10873;51.132;16.848;2023-04-30T04:44:37;5.43;;;3.50;;
21424;SDS011;10873;51.132;16.848;2023-04-30T04:47:03;3.90;;;3.50;;
21424;SDS011;10873;51.132;16.848;2023-04-30T04:49:30;4.20;;;3.40;;
21424;SDS011;10873;51.132;16.848;2023-04-30T04:51:57;4.40;;;3.60;;
21424;SDS011;10873;51.132;16.848;2023-04-30T04:54:24;6.57;;;3.78;;
21424;SDS011;10873;51.132;16.848;2023-04-30T04:56:50;4.40;;;3.58;;
21424;SDS011;10873;51.132;16.848;2023-04-30T04:59:16;3.92;;;3.38;;
21424;SDS011;10873;51.132;16.848;2023-04-30T05:01:42;3.97;;;3.30;;
21424;SDS011;10873;51.132;16.848;2023-04-30T05:04:09;5.55;;;3.50;;
21424;SDS011;10873;51.132;16.848;2023-04-30T05:06:34;4.45;;;3.60;;
21424;SDS011;10873;51.132;16.848;2023-04-30T05:09:02;4.88;;;3.15;;
21424;SDS011;10873;51.132;16.848;2023-04-30T05:11:31;6.57;;;3.88;;
21424;SDS011;10873;51.132;16.848;2023-04-30T05:13:57;4.53;;;3.20;;
21424;SDS011;10873;51.132;16.848;2023-04-30T05:16:23;4.55;;;3.70;;
21424;SDS011;10873;51.132;16.848;2023-04-30T05:18:49;4.00;;;3.38;;
21424;SDS011;10873;51.132;16.848;2023-04-30T05:21:16;4.55;;;3.40;;
21424;SDS011;10873;51.132;16.848;2023-04-30T05:23:42;5.47;;;3.38;;
21424;SDS011;10873;51.132;16.848;2023-04-30T05:26:10;4.18;;;3.25;;
21424;SDS011;10873;51.132;16.848;2023-04-30T05:28:36;4.28;;;3.17;;
21424;SDS011;10873;51.132;16.848;2023-04-30T05:31:02;6.90;;;3.47;;
21424;SDS011;10873;51.132;16.848;2023-04-30T05:33:28;11.00;;;3.47;;
21424;SDS011;10873;51.132;16.848;2023-04-30T05:35:54;8.02;;;3.47;;
21424;SDS011;10873;51.132;16.848;2023-04-30T05:38:20;9.27;;;3.13;;
21424;SDS011;10873;51.132;16.848;2023-04-30T05:40:46;11.65;;;4.18;;
21424;SDS011;10873;51.132;16.848;2023-04-30T05:43:14;8.48;;;3.78;;
21424;SDS011;10873;51.132;16.848;2023-04-30T05:45:39;20.33;;;4.32;;
21424;SDS011;10873;51.132;16.848;2023-04-30T05:48:06;11.93;;;3.33;;
21424;SDS011;10873;51.132;16.848;2023-04-30T05:50:32;13.63;;;3.75;;
21424;SDS011;10873;51.132;16.848;2023-04-30T05:52:58;10.05;;;3.60;;
21424;SDS011;10873;51.132;16.848;2023-04-30T05:55:24;9.63;;;3.63;;
21424;SDS011;10873;51.132;16.848;2023-04-30T05:57:50;10.57;;;3.97;;
21424;SDS011;10873;51.132;16.848;2023-04-30T06:00:18;6.43;;;3.50;;
21424;SDS011;10873;51.132;16.848;2023-04-30T06:02:44;9.52;;;3.53;;
21424;SDS011;10873;51.132;16.848;2023-04-30T06:05:10;10.52;;;3.80;;
21424;SDS011;10873;51.132;16.848;2023-04-30T06:07:36;12.77;;;3.83;;
21424;SDS011;10873;51.132;16.848;2023-04-30T06:10:02;6.32;;;3.50;;
21424;SDS011;10873;51.132;16.848;2023-04-30T06:12:29;12.65;;;3.63;;
21424;SDS011;10873;51.132;16.848;2023-04-30T06:14:55;8.80;;;3.33;;
21424;SDS011;10873;51.132;16.848;2023-04-30T06:17:23;8.63;;;3.50;;
21424;SDS011;10873;51.132;16.848;2023-04-30T06:19:49;7.40;;;3.47;;
21424;SDS011;10873;51.132;16.848;2023-04-30T06:22:15;6.55;;;3.13;;
21424;SDS011;10873;51.132;16.848;2023-04-30T06:24:41;8.35;;;3.33;;
21424;SDS011;10873;51.132;16.848;2023-04-30T06:27:08;6.18;;;3.40;;
21424;SDS011;10873;51.132;16.848;2023-04-30T06:29:34;6.90;;;3.50;;
21424;SDS011;10873;51.132;16.848;2023-04-30T06:32:00;6.75;;;2.88;;
21424;SDS011;10873;51.132;16.848;2023-04-30T06:34:27;7.63;;;3.05;;
21424;SDS011;10873;51.132;16.848;2023-04-30T06:36:53;4.72;;;3.08;;
21424;SDS011;10873;51.132;16.848;2023-04-30T06:39:19;5.53;;;2.95;;
21424;SDS011;10873;51.132;16.848;2023-04-30T06:41:45;11.60;;;3.25;;
21424;SDS011;10873;51.132;16.848;2023-04-30T06:44:11;12.95;;;4.25;;
21424;SDS011;10873;51.132;16.848;2023-04-30T06:46:38;14.48;;;3.45;;
21424;SDS011;10873;51.132;16.848;2023-04-30T06:49:03;5.05;;;2.88;;
21424;SDS011;10873;51.132;16.848;2023-04-30T06:51:31;5.72;;;2.97;;
21424;SDS011;10873;51.132;16.848;2023-04-30T06:53:58;8.23;;;3.08;;
21424;SDS011;10873;51.132;16.848;2023-04-30T06:56:25;8.88;;;2.85;;
21424;SDS011;10873;51.132;16.848;2023-04-30T06:58:50;9.05;;;3.20;;
21424;SDS011;10873;51.132;16.848;2023-04-30T07:01:17;4.60;;;3.03;;
21424;SDS011;10873;51.132;16.848;2023-04-30T07:03:43;5.07;;;2.83;;
21424;SDS011;10873;51.132;16.848;2023-04-30T07:06:09;7.95;;;3.22;;
21424;SDS011;10873;51.132;16.848;2023-04-30T07:08:36;9.73;;;3.13;;
21424;SDS011;10873;51.132;16.848;2023-04-30T07:11:05;4.50;;;3.05;;
21424;SDS011;10873;51.132;16.848;2023-04-30T07:13:31;8.13;;;3.42;;
21424;SDS011;10873;51.132;16.848;2023-04-30T07:15:57;6.00;;;2.67;;
21424;SDS011;10873;51.132;16.848;2023-04-30T07:18:23;8.30;;;3.45;;
21424;SDS011;10873;51.132;16.848;2023-04-30T07:20:49;6.53;;;2.88;;
21424;SDS011;10873;51.132;16.848;2023-04-30T07:23:15;5.32;;;2.78;;
21424;SDS011;10873;51.132;16.848;2023-04-30T07:25:43;6.07;;;3.38;;
21424;SDS011;10873;51.132;16.848;2023-04-30T07:28:09;6.38;;;2.78;;
21424;SDS011;10873;51.132;16.848;2023-04-30T07:30:35;9.00;;;2.80;;
21424;SDS011;10873;51.132;16.848;2023-04-30T07:33:01;7.38;;;2.88;;
21424;SDS011;10873;51.132;16.848;2023-04-30T07:35:32;8.50;;;2.72;;
21424;SDS011;10873;51.132;16.848;2023-04-30T07:37:58;8.70;;;2.70;;
21424;SDS011;10873;51.132;16.848;2023-04-30T07:40:24;7.82;;;2.65;;
21424;SDS011;10873;51.132;16.848;2023-04-30T07:42:53;22.20;;;3.75;;
21424;SDS011;10873;51.132;16.848;2023-04-30T07:45:22;5.63;;;2.85;;
21424;SDS011;10873;51.132;16.848;2023-04-30T07:47:48;10.38;;;3.15;;
21424;SDS011;10873;51.132;16.848;2023-04-30T07:50:19;6.22;;;2.60;;
21424;SDS011;10873;51.132;16.848;2023-04-30T07:52:47;10.32;;;3.28;;
21424;SDS011;10873;51.132;16.848;2023-04-30T07:55:14;7.35;;;3.25;;
21424;SDS011;10873;51.132;16.848;2023-04-30T07:57:40;7.25;;;2.80;;
21424;SDS011;10873;51.132;16.848;2023-04-30T08:00:08;6.78;;;3.00;;
21424;SDS011;10873;51.132;16.848;2023-04-30T08:02:39;92.00;;;9.77;;
21424;SDS011;10873;51.132;16.848;2023-04-30T08:05:05;78.03;;;9.57;;
21424;SDS011;10873;51.132;16.848;2023-04-30T08:07:32;64.78;;;9.70;;
21424;SDS011;10873;51.132;16.848;2023-04-30T08:10:04;57.67;;;8.55;;
21424;SDS011;10873;51.132;16.848;2023-04-30T08:12:31;49.40;;;7.45;;
21424;SDS011;10873;51.132;16.848;2023-04-30T08:15:04;49.03;;;7.03;;
21424;SDS011;10873;51.132;16.848;2023-04-30T08:17:36;37.75;;;6.40;;
21424;SDS011;10873;51.132;16.848;2023-04-30T08:20:03;27.23;;;5.50;;
21424;SDS011;10873;51.132;16.848;2023-04-30T08:22:29;22.02;;;5.03;;
21424;SDS011;10873;51.132;16.848;2023-04-30T08:24:56;22.92;;;4.80;;
21424;SDS011;10873;51.132;16.848;2023-04-30T08:27:22;19.95;;;4.82;;
21424;SDS011;10873;51.132;16.848;2023-04-30T08:29:48;15.45;;;4.63;;
21424;SDS011;10873;51.132;16.848;2023-04-30T08:32:14;18.20;;;4.90;;
21424;SDS011;10873;51.132;16.848;2023-04-30T08:34:44;18.25;;;4.22;;
21424;SDS011;10873;51.132;16.848;2023-04-30T08:37:10;19.42;;;4.07;;
21424;SDS011;10873;51.132;16.848;2023-04-30T08:39:37;14.40;;;4.22;;
21424;SDS011;10873;51.132;16.848;2023-04-30T08:42:07;15.40;;;4.00;;
21424;SDS011;10873;51.132;16.848;2023-04-30T08:44:36;13.00;;;4.22;;
21424;SDS011;10873;51.132;16.848;2023-04-30T08:47:03;8.50;;;3.47;;
21424;SDS011;10873;51.132;16.848;2023-04-30T08:49:33;12.35;;;3.70;;
21424;SDS011;10873;51.132;16.848;2023-04-30T08:52:02;12.23;;;3.55;;
21424;SDS011;10873;51.132;16.848;2023-04-30T08:54:29;8.32;;;3.42;;
21424;SDS011;10873;51.132;16.848;2023-04-30T08:56:58;14.07;;;4.10;;
21424;SDS011;10873;51.132;16.848;2023-04-30T08:59:26;16.98;;;3.72;;
21424;SDS011;10873;51.132;16.848;2023-04-30T09:01:55;10.65;;;3.20;;
21424;SDS011;10873;51.132;16.848;2023-04-30T09:04:24;9.15;;;3.13;;
21424;SDS011;10873;51.132;16.848;2023-04-30T09:06:51;7.57;;;3.30;;
21424;SDS011;10873;51.132;16.848;2023-04-30T09:09:29;11.20;;;3.58;;
21424;SDS011;10873;51.132;16.848;2023-04-30T09:12:16;49.30;;;5.15;;
21424;SDS011;10873;51.132;16.848;2023-04-30T09:15:04;26.98;;;4.40;;
21424;SDS011;10873;51.132;16.848;2023-04-30T09:17:31;26.55;;;4.63;;
21424;SDS011;10873;51.132;16.848;2023-04-30T09:20:05;38.00;;;5.60;;
21424;SDS011;10873;51.132;16.848;2023-04-30T09:22:33;34.65;;;5.47;;
21424;SDS011;10873;51.132;16.848;2023-04-30T09:25:10;25.75;;;5.28;;
21424;SDS011;10873;51.132;16.848;2023-04-30T09:27:44;22.80;;;5.78;;
21424;SDS011;10873;51.132;16.848;2023-04-30T09:30:11;17.40;;;4.10;;
21424;SDS011;10873;51.132;16.848;2023-04-30T09:32:55;21.90;;;4.00;;
21424;SDS011;10873;51.132;16.848;2023-04-30T09:35:27;12.82;;;3.80;;
21424;SDS011;10873;51.132;16.848;2023-04-30T09:37:54;14.00;;;3.83;;
21424;SDS011;10873;51.132;16.848;2023-04-30T09:40:23;16.35;;;4.90;;
21424;SDS011;10873;51.132;16.848;2023-04-30T09:43:03;9.77;;;3.55;;
21424;SDS011;10873;51.132;16.848;2023-04-30T09:45:40;14.48;;;3.58;;
21424;SDS011;10873;51.132;16.848;2023-04-30T09:48:16;9.10;;;3.38;;
21424;SDS011;10873;51.132;16.848;2023-04-30T09:53:27;10.27;;;3.10;;
21424;SDS011;10873;51.132;16.848;2023-04-30T09:56:17;6.97;;;3.20;;
21424;SDS011;10873;51.132;16.848;2023-04-30T10:01:41;10.73;;;7.35;;
21424;SDS011;10873;51.132;16.848;2023-04-30T10:04:14;13.52;;;7.93;;
21424;SDS011;10873;51.132;16.848;2023-04-30T10:06:49;29.67;;;8.25;;
21424;SDS011;10873;51.132;16.848;2023-04-30T10:09:43;31.60;;;7.47;;
21424;SDS011;10873;51.132;16.848;2023-04-30T10:12:19;39.28;;;6.68;;
21424;SDS011;10873;51.132;16.848;2023-04-30T10:15:39;20.02;;;5.20;;
21424;SDS011;10873;51.132;16.848;2023-04-30T10:21:54;12.13;;;3.88;;
21424;SDS011;10873;51.132;16.848;2023-04-30T10:24:28;11.82;;;3.47;;
21424;SDS011;10873;51.132;16.848;2023-04-30T10:27:02;9.20;;;2.78;;
21424;SDS011;10873;51.132;16.848;2023-04-30T10:29:40;12.50;;;3.15;;
21424;SDS011;10873;51.132;16.848;2023-04-30T10:32:10;19.42;;;3.72;;
21424;SDS011;10873;51.132;16.848;2023-04-30T10:34:54;25.15;;;3.30;;
21424;SDS011;10873;51.132;16.848;2023-04-30T10:37:54;12.63;;;2.67;;
21424;SDS011;10873;51.132;16.848;2023-04-30T10:40:34;15.32;;;3.47;;
21424;SDS011;10873;51.132;16.848;2023-04-30T10:43:06;14.18;;;2.38;;
21424;SDS011;10873;51.132;16.848;2023-04-30T10:45:54;14.55;;;3.67;;
21424;SDS011;10873;51.132;16.848;2023-04-30T10:48:45;16.05;;;3.35;;
21424;SDS011;10873;51.132;16.848;2023-04-30T10:51:26;25.35;;;4.47;;
21424;SDS011;10873;51.132;16.848;2023-04-30T10:54:21;17.42;;;3.63;;
21424;SDS011;10873;51.132;16.848;2023-04-30T10:57:09;16.35;;;3.63;;
21424;SDS011;10873;51.132;16.848;2023-04-30T11:00:16;23.55;;;4.80;;
21424;SDS011;10873;51.132;16.848;2023-04-30T11:02:54;19.13;;;4.00;;
21424;SDS011;10873;51.132;16.848;2023-04-30T11:05:36;16.30;;;4.22;;
21424;SDS011;10873;51.132;16.848;2023-04-30T11:08:12;16.65;;;4.55;;
21424;SDS011;10873;51.132;16.848;2023-04-30T11:10:55;15.20;;;4.30;;
21424;SDS011;10873;51.132;16.848;2023-04-30T11:13:47;21.58;;;4.80;;
21424;SDS011;10873;51.132;16.848;2023-04-30T11:16:35;11.48;;;4.20;;
21424;SDS011;10873;51.132;16.848;2023-04-30T11:19:06;17.48;;;4.30;;
21424;SDS011;10873;51.132;16.848;2023-04-30T11:21:38;21.67;;;4.18;;
21424;SDS011;10873;51.132;16.848;2023-04-30T11:24:06;15.48;;;4.07;;
21424;SDS011;10873;51.132;16.848;2023-04-30T11:29:29;23.42;;;5.75;;
21424;SDS011;10873;51.132;16.848;2023-04-30T11:31:56;18.00;;;4.22;;
21424;SDS011;10873;51.132;16.848;2023-04-30T11:34:26;20.17;;;4.45;;
21424;SDS011;10873;51.132;16.848;2023-04-30T11:36:54;18.70;;;3.92;;
21424;SDS011;10873;51.132;16.848;2023-04-30T11:39:27;16.08;;;3.25;;
21424;SDS011;10873;51.132;16.848;2023-04-30T11:41:53;12.65;;;4.32;;
21424;SDS011;10873;51.132;16.848;2023-04-30T11:44:24;15.80;;;4.60;;
21424;SDS011;10873;51.132;16.848;2023-04-30T11:46:50;18.00;;;4.28;;
21424;SDS011;10873;51.132;16.848;2023-04-30T11:49:17;14.75;;;4.60;;
21424;SDS011;10873;51.132;16.848;2023-04-30T11:51:48;9.30;;;3.42;;
21424;SDS011;10873;51.132;16.848;2023-04-30T11:54:15;8.23;;;3.22;;
21424;SDS011;10873;51.132;16.848;2023-04-30T11:56:44;17.30;;;3.63;;
21424;SDS011;10873;51.132;16.848;2023-04-30T11:59:13;11.00;;;3.10;;
21424;SDS011;10873;51.132;16.848;2023-04-30T12:01:39;9.90;;;3.25;;
21424;SDS011;10873;51.132;16.848;2023-04-30T12:04:06;12.48;;;4.10;;
21424;SDS011;10873;51.132;16.848;2023-04-30T12:06:33;12.27;;;4.53;;
21424;SDS011;10873;51.132;16.848;2023-04-30T12:09:02;17.92;;;5.90;;
21424;SDS011;10873;51.132;16.848;2023-04-30T12:11:34;17.33;;;4.95;;
21424;SDS011;10873;51.132;16.848;2023-04-30T12:14:01;12.25;;;4.25;;
21424;SDS011;10873;51.132;16.848;2023-04-30T12:16:37;10.88;;;4.10;;
21424;SDS011;10873;51.132;16.848;2023-04-30T12:19:05;9.38;;;3.72;;
21424;SDS011;10873;51.132;16.848;2023-04-30T12:21:31;16.40;;;4.03;;
21424;SDS011;10873;51.132;16.848;2023-04-30T12:23:58;13.82;;;3.25;;
21424;SDS011;10873;51.132;16.848;2023-04-30T12:26:25;8.70;;;2.90;;
21424;SDS011;10873;51.132;16.848;2023-04-30T12:29:02;12.88;;;3.55;;
21424;SDS011;10873;51.132;16.848;2023-04-30T12:31:30;16.77;;;2.50;;
21424;SDS011;10873;51.132;16.848;2023-04-30T12:34:01;8.13;;;2.63;;
21424;SDS011;10873;51.132;16.848;2023-04-30T12:36:31;14.02;;;2.95;;
21424;SDS011;10873;51.132;16.848;2023-04-30T12:39:05;12.15;;;2.47;;
21424;SDS011;10873;51.132;16.848;2023-04-30T12:41:36;13.35;;;2.65;;
21424;SDS011;10873;51.132;16.848;2023-04-30T12:44:12;12.95;;;2.53;;
21424;SDS011;10873;51.132;16.848;2023-04-30T12:46:39;7.43;;;2.10;;
21424;SDS011;10873;51.132;16.848;2023-04-30T12:49:05;9.63;;;1.98;;
21424;SDS011;10873;51.132;16.848;2023-04-30T12:51:32;11.27;;;2.47;;
21424;SDS011;10873;51.132;16.848;2023-04-30T12:53:59;11.80;;;2.35;;
21424;SDS011;10873;51.132;16.848;2023-04-30T12:56:25;5.57;;;2.30;;
21424;SDS011;10873;51.132;16.848;2023-04-30T12:58:53;7.63;;;2.03;;
21424;SDS011;10873;51.132;16.848;2023-04-30T13:01:20;15.27;;;2.53;;
21424;SDS011;10873;51.132;16.848;2023-04-30T13:03:48;21.30;;;2.53;;
21424;SDS011;10873;51.132;16.848;2023-04-30T13:06:14;82.72;;;9.00;;
21424;SDS011;10873;51.132;16.848;2023-04-30T13:08:41;54.97;;;6.45;;
21424;SDS011;10873;51.132;16.848;2023-04-30T13:11:07;48.28;;;5.32;;
21424;SDS011;10873;51.132;16.848;2023-04-30T13:13:33;23.98;;;4.07;;
21424;SDS011;10873;51.132;16.848;2023-04-30T13:16:01;32.10;;;3.88;;
21424;SDS011;10873;51.132;16.848;2023-04-30T13:18:30;23.13;;;3.28;;
21424;SDS011;10873;51.132;16.848;2023-04-30T13:20:56;27.02;;;3.50;;
21424;SDS011;10873;51.132;16.848;2023-04-30T13:23:23;29.08;;;2.88;;
21424;SDS011;10873;51.132;16.848;2023-04-30T13:25:51;31.33;;;3.65;;
21424;SDS011;10873;51.132;16.848;2023-04-30T13:28:18;14.35;;;3.03;;
21424;SDS011;10873;51.132;16.848;2023-04-30T13:30:44;16.50;;;2.20;;
21424;SDS011;10873;51.132;16.848;2023-04-30T13:33:11;10.35;;;2.38;;
21424;SDS011;10873;51.132;16.848;2023-04-30T13:35:37;10.15;;;2.10;;
21424;SDS011;10873;51.132;16.848;2023-04-30T13:38:04;6.95;;;2.00;;
21424;SDS011;10873;51.132;16.848;2023-04-30T13:40:30;4.95;;;1.80;;
21424;SDS011;10873;51.132;16.848;2023-04-30T13:42:57;5.50;;;1.80;;
21424;SDS011;10873;51.132;16.848;2023-04-30T13:45:23;5.25;;;1.70;;
21424;SDS011;10873;51.132;16.848;2023-04-30T13:47:49;6.70;;;2.10;;
21424;SDS011;10873;51.132;16.848;2023-04-30T13:50:16;9.48;;;2.25;;
21424;SDS011;10873;51.132;16.848;2023-04-30T13:52:42;10.75;;;1.98;;
21424;SDS011;10873;51.132;16.848;2023-04-30T13:55:08;15.35;;;2.83;;
21424;SDS011;10873;51.132;16.848;2023-04-30T13:57:35;12.25;;;2.75;;
21424;SDS011;10873;51.132;16.848;2023-04-30T14:00:04;59.65;;;8.13;;
21424;SDS011;10873;51.132;16.848;2023-04-30T14:02:35;29.10;;;4.93;;
21424;SDS011;10873;51.132;16.848;2023-04-30T14:05:04;21.83;;;3.15;;
21424;SDS011;10873;51.132;16.848;2023-04-30T14:07:37;23.88;;;3.30;;
21424;SDS011;10873;51.132;16.848;2023-04-30T14:10:04;13.57;;;2.47;;
21424;SDS011;10873;51.132;16.848;2023-04-30T14:12:31;11.00;;;2.90;;
21424;SDS011;10873;51.132;16.848;2023-04-30T14:14:58;35.17;;;16.40;;
21424;SDS011;10873;51.132;16.848;2023-04-30T14:17:25;39.15;;;18.60;;
21424;SDS011;10873;51.132;16.848;2023-04-30T14:19:52;29.00;;;13.05;;
21424;SDS011;10873;51.132;16.848;2023-04-30T14:22:18;20.98;;;7.40;;
21424;SDS011;10873;51.132;16.848;2023-04-30T14:24:45;20.35;;;5.13;;
21424;SDS011;10873;51.132;16.848;2023-04-30T14:27:12;13.55;;;5.40;;
21424;SDS011;10873;51.132;16.848;2023-04-30T14:29:38;16.45;;;7.45;;
21424;SDS011;10873;51.132;16.848;2023-04-30T14:32:04;22.35;;;12.77;;
21424;SDS011;10873;51.132;16.848;2023-04-30T14:34:30;16.15;;;9.27;;
21424;SDS011;10873;51.132;16.848;2023-04-30T14:36:57;16.95;;;8.57;;
21424;SDS011;10873;51.132;16.848;2023-04-30T14:39:25;15.85;;;8.10;;
21424;SDS011;10873;51.132;16.848;2023-04-30T14:41:53;14.82;;;6.95;;
21424;SDS011;10873;51.132;16.848;2023-04-30T14:44:20;27.95;;;15.52;;
21424;SDS011;10873;51.132;16.848;2023-04-30T14:46:48;25.58;;;14.07;;
21424;SDS011;10873;51.132;16.848;2023-04-30T14:49:15;20.55;;;9.82;;
21424;SDS011;10873;51.132;16.848;2023-04-30T14:51:41;16.10;;;7.43;;